createdAt,value
2018-09-05T00:00:12.912Z,18.80
2018-09-05T00:02:41.133Z,18.80
2018-09-05T00:05:09.699Z,18.80
2018-09-05T00:07:37.859Z,18.70
2018-09-05T00:10:06.059Z,18.70
2018-09-05T00:12:34.252Z,18.70
2018-09-05T00:15:02.451Z,18.80
2018-09-05T00:17:30.630Z,18.80
2018-09-05T00:19:58.840Z,18.80
2018-09-05T00:22:27.220Z,18.80
2018-09-05T00:24:55.504Z,18.80
2018-09-05T00:27:23.932Z,18.70
2018-09-05T00:29:52.126Z,18.70
2018-09-05T00:32:20.341Z,18.70
2018-09-05T00:34:48.547Z,18.60
2018-09-05T00:37:16.733Z,18.60
2018-09-05T00:39:44.926Z,18.50
2018-09-05T00:42:13.100Z,18.50
2018-09-05T00:44:41.312Z,18.40
2018-09-05T00:47:46.333Z,18.40
2018-09-05T00:55:11.055Z,18.40
2018-09-05T00:57:39.779Z,18.30
2018-09-05T01:00:08.412Z,18.30
2018-09-05T01:02:36.931Z,18.20
2018-09-05T01:07:33.558Z,18.20
2018-09-05T01:10:02.075Z,18.10
2018-09-05T01:12:30.710Z,18.10
2018-09-05T01:14:59.372Z,18.10
2018-09-05T01:17:27.783Z,18.10
2018-09-05T01:19:56.289Z,18.10
2018-09-05T01:22:24.911Z,18.10
2018-09-05T01:24:53.352Z,18.00
2018-09-05T01:27:22.173Z,18.10
2018-09-05T01:29:50.812Z,18.00
2018-09-05T01:32:19.089Z,18.10
2018-09-05T01:34:48.030Z,18.00
2018-09-05T01:37:16.370Z,18.00
2018-09-05T01:39:45.021Z,18.00
2018-09-05T01:42:13.423Z,18.00
2018-09-05T01:44:42.011Z,18.00
2018-09-05T01:47:10.475Z,18.00
2018-09-05T01:49:38.953Z,18.00
2018-09-05T01:52:07.358Z,18.00
2018-09-05T01:54:35.911Z,17.90
2018-09-05T01:57:04.488Z,17.90
2018-09-05T01:59:33.083Z,17.90
2018-09-05T02:02:01.673Z,17.80
2018-09-05T02:04:30.196Z,17.70
2018-09-05T02:06:58.637Z,17.70
2018-09-05T02:09:27.114Z,17.70
2018-09-05T02:11:55.916Z,17.70
2018-09-05T02:14:24.252Z,17.70
2018-09-05T02:16:52.938Z,17.70
2018-09-05T02:19:21.403Z,17.70
2018-09-05T02:21:49.796Z,17.70
2018-09-05T02:24:18.261Z,17.70
2018-09-05T02:26:46.677Z,17.70
2018-09-05T02:29:15.106Z,17.70
2018-09-05T02:31:43.543Z,17.70
2018-09-05T02:34:12.001Z,17.60
2018-09-05T02:36:40.482Z,17.60
2018-09-05T02:39:10.187Z,17.60
2018-09-05T02:41:38.710Z,17.60
2018-09-05T02:44:12.608Z,17.50
2018-09-05T02:46:41.064Z,17.50
2018-09-05T02:49:09.853Z,17.50
2018-09-05T02:51:38.571Z,17.40
2018-09-05T02:54:07.136Z,17.40
2018-09-05T02:56:35.495Z,17.40
2018-09-05T02:59:03.898Z,17.40
2018-09-05T03:01:32.437Z,17.30
2018-09-05T03:04:00.806Z,17.30
2018-09-05T03:06:29.216Z,17.30
2018-09-05T03:08:57.544Z,17.30
2018-09-05T03:11:25.965Z,17.30
2018-09-05T03:13:54.357Z,17.30
2018-09-05T03:16:22.959Z,17.20
2018-09-05T03:18:51.422Z,17.20
2018-09-05T03:21:20.019Z,17.20
2018-09-05T03:23:48.497Z,17.20
2018-09-05T03:26:16.955Z,17.20
2018-09-05T03:28:45.642Z,17.10
2018-09-05T03:31:14.315Z,17.10
2018-09-05T03:33:42.802Z,17.00
2018-09-05T03:36:11.387Z,17.00
2018-09-05T03:38:39.864Z,17.00
2018-09-05T03:41:08.447Z,17.00
2018-09-05T03:43:36.815Z,17.00
2018-09-05T03:46:05.615Z,17.00
2018-09-05T03:48:34.027Z,17.00
2018-09-05T03:51:02.574Z,17.00
2018-09-05T03:53:31.287Z,17.00
2018-09-05T03:55:59.772Z,17.00
2018-09-05T03:58:28.253Z,17.00
2018-09-05T04:00:56.992Z,17.00
2018-09-05T04:03:26.052Z,17.00
2018-09-05T04:05:54.583Z,17.00
2018-09-05T04:08:23.271Z,16.90
2018-09-05T04:10:51.775Z,16.90
2018-09-05T04:13:20.241Z,16.90
2018-09-05T04:15:48.943Z,16.90
2018-09-05T04:18:17.419Z,16.90
2018-09-05T04:20:45.897Z,16.90
2018-09-05T04:23:14.276Z,16.80
2018-09-05T04:25:42.763Z,16.80
2018-09-05T04:28:11.503Z,16.80
2018-09-05T04:30:39.913Z,16.80
2018-09-05T04:33:08.490Z,16.80
2018-09-05T04:35:36.870Z,16.70
2018-09-05T04:38:05.361Z,16.70
2018-09-05T04:40:33.800Z,16.70
2018-09-05T04:43:02.184Z,16.70
2018-09-05T04:45:30.697Z,16.70
2018-09-05T04:47:59.186Z,16.70
2018-09-05T04:50:27.719Z,16.70
2018-09-05T04:52:56.377Z,16.70
2018-09-05T04:55:24.632Z,16.70
2018-09-05T04:57:53.078Z,16.70
2018-09-05T05:00:21.674Z,16.70
2018-09-05T05:02:50.215Z,16.80
2018-09-05T05:05:19.335Z,16.80
2018-09-05T05:07:47.824Z,16.80
2018-09-05T05:10:16.344Z,16.80
2018-09-05T05:12:44.865Z,16.80
2018-09-05T05:15:13.384Z,16.80
2018-09-05T05:17:42.075Z,16.80
2018-09-05T05:20:17.203Z,16.80
2018-09-05T05:22:45.594Z,16.80
2018-09-05T05:27:47.257Z,16.80
2018-09-05T05:30:16.355Z,16.80
2018-09-05T05:32:44.810Z,16.80
2018-09-05T05:35:13.193Z,16.80
2018-09-05T05:37:41.591Z,16.80
2018-09-05T05:40:10.185Z,16.80
2018-09-05T05:42:38.578Z,16.80
2018-09-05T05:45:07.218Z,16.80
2018-09-05T05:47:35.786Z,16.90
2018-09-05T05:50:04.522Z,16.90
2018-09-05T05:52:33.190Z,16.90
2018-09-05T05:55:02.676Z,16.90
2018-09-05T05:57:31.284Z,16.90
2018-09-05T06:02:27.968Z,17.00
2018-09-05T06:04:56.520Z,17.00
2018-09-05T06:07:24.868Z,17.00
2018-09-05T06:09:53.585Z,17.00
2018-09-05T06:12:22.043Z,17.10
2018-09-05T06:14:51.020Z,17.10
2018-09-05T06:17:20.131Z,17.10
2018-09-05T06:19:48.593Z,17.10
2018-09-05T06:22:17.642Z,17.10
2018-09-05T06:24:46.473Z,17.20
2018-09-05T06:27:15.060Z,17.20
2018-09-05T06:29:43.703Z,17.30
2018-09-05T06:32:12.428Z,17.30
2018-09-05T06:34:40.999Z,17.40
2018-09-05T06:37:09.915Z,17.40
2018-09-05T06:39:38.736Z,17.50
2018-09-05T06:42:07.405Z,17.50
2018-09-05T06:44:36.429Z,17.60
2018-09-05T06:47:05.351Z,17.60
2018-09-05T06:49:34.262Z,17.60
2018-09-05T06:52:03.002Z,17.70
2018-09-05T06:54:31.883Z,17.70
2018-09-05T06:57:00.760Z,17.80
2018-09-05T06:59:29.164Z,17.80
2018-09-05T07:01:58.234Z,17.90
2018-09-05T07:04:27.290Z,17.90
2018-09-05T07:06:56.140Z,18.00
2018-09-05T07:09:25.311Z,18.00
2018-09-05T07:11:55.351Z,18.10
2018-09-05T07:14:24.188Z,18.20
2018-09-05T07:16:52.754Z,18.20
2018-09-05T07:19:21.861Z,18.20
2018-09-05T07:21:50.796Z,18.30
2018-09-05T07:24:19.490Z,18.40
2018-09-05T07:26:48.020Z,18.50
2018-09-05T07:29:17.475Z,18.50
2018-09-05T07:31:46.234Z,18.50
2018-09-05T07:34:15.111Z,18.60
2018-09-05T07:36:44.208Z,18.80
2018-09-05T07:39:12.820Z,18.80
2018-09-05T07:41:41.342Z,18.90
2018-09-05T07:44:10.454Z,19.00
2018-09-05T07:46:39.705Z,19.00
2018-09-05T07:49:08.680Z,19.00
2018-09-05T07:51:37.570Z,19.10
2018-09-05T07:54:06.629Z,19.10
2018-09-05T07:56:35.148Z,19.20
2018-09-05T07:59:03.747Z,19.30
2018-09-05T08:01:32.956Z,19.30
2018-09-05T08:04:01.620Z,19.50
2018-09-05T08:06:30.630Z,19.50
2018-09-05T08:08:59.400Z,19.50
2018-09-05T08:11:28.075Z,19.60
2018-09-05T08:13:56.468Z,19.60
2018-09-05T08:16:31.958Z,19.70
2018-09-05T08:19:00.656Z,19.70
2018-09-05T08:21:30.312Z,19.70
2018-09-05T08:23:59.033Z,19.80
2018-09-05T08:26:28.588Z,19.80
2018-09-05T08:28:57.324Z,19.90
2018-09-05T08:31:25.854Z,19.90
2018-09-05T08:33:54.252Z,20.00
2018-09-05T08:36:23.300Z,20.10
2018-09-05T08:38:51.642Z,20.10
2018-09-05T08:41:20.045Z,20.10
2018-09-05T08:43:49.059Z,20.20
2018-09-05T08:46:17.590Z,20.20
2018-09-05T08:48:45.996Z,20.30
2018-09-05T08:51:14.520Z,20.40
2018-09-05T08:53:42.989Z,20.40
2018-09-05T08:56:11.767Z,20.50
2018-09-05T08:58:40.226Z,20.50
2018-09-05T09:01:08.682Z,20.60
2018-09-05T09:03:37.165Z,20.60
2018-09-05T09:06:05.949Z,20.60
2018-09-05T09:08:34.411Z,20.70
2018-09-05T09:11:03.012Z,20.70
2018-09-05T09:13:31.936Z,20.80
2018-09-05T09:18:29.349Z,21.10
2018-09-05T09:20:58.046Z,21.10
2018-09-05T09:23:27.163Z,21.20
2018-09-05T09:25:55.830Z,21.10
2018-09-05T09:28:24.762Z,21.20
2018-09-05T09:30:53.396Z,21.40
2018-09-05T09:33:22.077Z,21.40
2018-09-05T09:35:51.103Z,21.70
2018-09-05T09:38:19.988Z,21.60
2018-09-05T09:40:49.583Z,21.70
2018-09-05T09:43:18.363Z,21.70
2018-09-05T09:45:47.051Z,21.90
2018-09-05T09:48:16.184Z,22.00
2018-09-05T09:50:45.051Z,22.00
2018-09-05T09:53:13.929Z,22.00
2018-09-05T09:55:42.624Z,22.00
2018-09-05T09:58:11.072Z,22.10
2018-09-05T10:00:44.889Z,22.20
2018-09-05T10:03:18.934Z,22.20
2018-09-05T10:05:52.824Z,22.40
2018-09-05T10:08:26.693Z,22.40
2018-09-05T10:11:02.083Z,22.50
2018-09-05T10:13:36.076Z,22.40
2018-09-05T10:16:10.164Z,22.50
2018-09-05T10:18:41.151Z,22.60
2018-09-05T10:21:09.636Z,22.60
2018-09-05T10:23:38.977Z,22.80
2018-09-05T10:26:08.202Z,22.80
2018-09-05T10:28:36.952Z,22.90
2018-09-05T10:31:05.699Z,23.00
2018-09-05T10:33:34.139Z,23.20
2018-09-05T10:36:03.118Z,23.20
2018-09-05T10:38:31.878Z,23.20
2018-09-05T10:41:00.529Z,23.20
2018-09-05T10:43:29.198Z,23.20
2018-09-05T10:48:26.760Z,23.40
2018-09-05T10:50:56.063Z,23.70
2018-09-05T10:53:24.646Z,23.80
2018-09-05T10:55:53.144Z,23.70
2018-09-05T10:58:22.840Z,23.60
2018-09-05T11:00:51.418Z,23.70
2018-09-05T11:03:20.180Z,23.90
2018-09-05T11:05:48.964Z,23.80
2018-09-05T11:08:18.035Z,23.80
2018-09-05T11:10:46.875Z,23.80
2018-09-05T11:13:16.079Z,23.90
2018-09-05T11:15:44.771Z,24.00
2018-09-05T11:18:13.466Z,24.10
2018-09-05T11:20:42.380Z,24.10
2018-09-05T11:23:11.686Z,24.10
2018-09-05T11:25:41.160Z,24.20
2018-09-05T11:28:09.987Z,24.20
2018-09-05T11:30:39.262Z,24.30
2018-09-05T11:35:37.016Z,24.30
2018-09-05T11:38:06.037Z,24.40
2018-09-05T11:40:35.282Z,24.40
2018-09-05T11:45:33.311Z,24.70
2018-09-05T11:48:02.524Z,24.60
2018-09-05T11:50:31.376Z,24.60
2018-09-05T11:53:01.534Z,24.70
2018-09-05T11:55:30.477Z,24.70
2018-09-05T11:57:59.094Z,24.70
2018-09-05T12:00:28.909Z,24.90
2018-09-05T12:02:57.816Z,25.00
2018-09-05T12:05:26.352Z,25.10
2018-09-05T12:07:54.859Z,25.10
2018-09-05T12:10:23.384Z,25.00
2018-09-05T12:12:52.133Z,25.10
2018-09-05T12:15:20.998Z,25.30
2018-09-05T12:20:18.249Z,25.20
2018-09-05T12:22:47.626Z,25.30
2018-09-05T12:25:16.390Z,25.30
2018-09-05T12:27:45.902Z,25.40
2018-09-05T12:30:14.822Z,25.30
2018-09-05T12:32:43.487Z,25.50
2018-09-05T12:37:47.388Z,25.40
2018-09-05T12:42:44.481Z,25.50
2018-09-05T12:45:13.023Z,25.60
2018-09-05T12:47:41.713Z,25.70
2018-09-05T12:50:12.308Z,25.70
2018-09-05T12:52:40.913Z,25.60
2018-09-05T12:55:09.403Z,25.60
2018-09-05T12:57:38.006Z,25.70
2018-09-05T13:00:06.763Z,26.10
2018-09-05T13:02:35.901Z,26.10
2018-09-05T13:05:04.821Z,26.20
2018-09-05T13:07:33.183Z,25.10
2018-09-05T13:10:01.888Z,26.10
2018-09-05T13:12:30.287Z,26.10
2018-09-05T13:14:59.084Z,26.20
2018-09-05T13:17:27.605Z,26.20
2018-09-05T13:19:56.239Z,26.20
2018-09-05T13:22:24.740Z,26.30
2018-09-05T13:24:53.353Z,26.30
2018-09-05T13:27:22.086Z,26.30
2018-09-05T13:29:50.747Z,26.30
2018-09-05T13:32:19.606Z,26.30
2018-09-05T13:34:48.312Z,26.40
2018-09-05T13:37:16.639Z,26.50
2018-09-05T13:39:46.777Z,26.50
2018-09-05T13:42:15.376Z,26.50
2018-09-05T13:44:43.842Z,26.50
2018-09-05T13:47:12.615Z,26.50
2018-09-05T13:49:41.192Z,26.60
2018-09-05T13:52:17.694Z,26.60
2018-09-05T13:54:46.259Z,26.60
2018-09-05T13:57:14.762Z,26.40
2018-09-05T13:59:48.392Z,26.40
2018-09-05T14:02:16.945Z,26.60
2018-09-05T14:04:45.325Z,26.70
2018-09-05T14:07:13.930Z,26.70
2018-09-05T14:09:42.886Z,26.90
2018-09-05T14:12:11.375Z,26.90
2018-09-05T14:14:40.125Z,26.80
2018-09-05T14:17:08.602Z,26.80
2018-09-05T14:19:37.030Z,27.10
2018-09-05T14:22:05.850Z,27.20
2018-09-05T14:24:34.554Z,27.30
2018-09-05T14:27:03.181Z,27.50
2018-09-05T14:29:32.479Z,27.70
2018-09-05T14:32:00.893Z,27.70
2018-09-05T14:34:29.416Z,27.80
2018-09-05T14:36:58.251Z,28.00
2018-09-05T14:39:27.419Z,28.10
2018-09-05T14:41:55.947Z,28.50
2018-09-05T14:44:25.236Z,29.30
2018-09-05T14:46:53.898Z,29.40
2018-09-05T14:49:22.668Z,29.20
2018-09-05T14:51:51.866Z,28.80
2018-09-05T14:54:20.386Z,28.80
2018-09-05T14:56:48.734Z,28.60
2018-09-05T14:59:17.485Z,28.80
2018-09-05T15:01:46.411Z,29.20
2018-09-05T15:04:14.951Z,29.20
2018-09-05T15:06:44.146Z,29.20
2018-09-05T15:09:13.468Z,29.40
2018-09-05T15:11:42.017Z,29.40
2018-09-05T15:14:11.177Z,29.30
2018-09-05T15:16:39.708Z,29.50
2018-09-05T15:19:08.424Z,29.70
2018-09-05T15:21:37.061Z,30.00
2018-09-05T15:24:05.885Z,30.20
2018-09-05T15:26:34.487Z,30.10
2018-09-05T15:29:03.026Z,30.00
2018-09-05T15:31:31.466Z,30.10
2018-09-05T15:33:59.842Z,30.40
2018-09-05T15:36:28.482Z,30.30
2018-09-05T15:38:57.152Z,30.50
2018-09-05T15:41:25.520Z,30.40
2018-09-05T15:43:54.050Z,30.40
2018-09-05T15:46:27.261Z,31.10
2018-09-05T15:48:55.979Z,31.30
2018-09-05T15:51:24.730Z,31.30
2018-09-05T15:53:53.233Z,31.80
2018-09-05T15:56:21.828Z,32.00
2018-09-05T15:58:50.743Z,32.10
2018-09-05T16:01:19.472Z,32.50
2018-09-05T16:03:47.962Z,32.50
2018-09-05T16:06:17.527Z,31.60
2018-09-05T16:08:46.191Z,30.90
2018-09-05T16:11:14.932Z,30.80
2018-09-05T16:13:43.671Z,31.60
2018-09-05T16:16:12.260Z,31.80
2018-09-05T16:18:41.739Z,31.80
2018-09-05T16:21:10.164Z,31.90
2018-09-05T16:23:40.161Z,31.60
2018-09-05T16:26:09.153Z,31.30
2018-09-05T16:28:37.650Z,31.20
2018-09-05T16:31:06.337Z,30.30
2018-09-05T16:33:34.957Z,29.70
2018-09-05T16:36:03.741Z,29.30
2018-09-05T16:38:32.348Z,29.10
2018-09-05T16:41:00.969Z,29.10
2018-09-05T16:43:29.647Z,28.90
2018-09-05T16:45:58.260Z,28.80
2018-09-05T16:48:26.898Z,28.70
2018-09-05T16:50:55.298Z,28.30
2018-09-05T16:53:23.841Z,28.30
2018-09-05T16:55:52.119Z,28.00
2018-09-05T16:58:20.769Z,28.10
2018-09-05T17:00:49.280Z,27.90
2018-09-05T17:03:24.431Z,27.80
2018-09-05T17:05:52.899Z,27.80
2018-09-05T17:08:21.393Z,27.70
2018-09-05T17:10:49.815Z,27.70
2018-09-05T17:13:18.415Z,27.60
2018-09-05T17:15:46.828Z,27.60
2018-09-05T17:18:15.213Z,27.70
2018-09-05T17:23:11.910Z,27.70
2018-09-05T17:25:40.503Z,27.70
2018-09-05T17:28:09.071Z,27.70
2018-09-05T17:30:37.620Z,27.10
2018-09-05T17:33:06.239Z,26.80
2018-09-05T17:35:35.038Z,26.60
2018-09-05T17:38:03.740Z,26.60
2018-09-05T17:40:32.507Z,26.30
2018-09-05T17:43:01.133Z,26.20
2018-09-05T17:45:29.592Z,26.10
2018-09-05T17:47:58.265Z,26.00
2018-09-05T17:50:26.824Z,25.70
2018-09-05T17:52:55.930Z,25.70
2018-09-05T17:55:24.746Z,25.60
2018-09-05T17:57:53.326Z,25.60
2018-09-05T18:00:22.370Z,25.20
2018-09-05T18:02:51.110Z,25.00
2018-09-05T18:05:19.740Z,25.00
2018-09-05T18:07:48.392Z,24.90
2018-09-05T18:10:16.744Z,24.80
2018-09-05T18:12:45.519Z,24.70
2018-09-05T18:15:14.001Z,24.60
2018-09-05T18:17:42.538Z,24.50
2018-09-05T18:20:11.246Z,24.40
2018-09-05T18:22:39.638Z,24.40
2018-09-05T18:27:36.215Z,24.50
2018-09-05T18:30:04.706Z,24.30
2018-09-05T18:32:34.549Z,24.30
2018-09-05T18:37:31.097Z,24.00
2018-09-05T18:39:59.492Z,24.00
2018-09-05T18:42:27.927Z,24.00
2018-09-05T18:44:56.202Z,24.10
2018-09-05T18:47:24.502Z,24.20
2018-09-05T18:49:53.361Z,24.20
2018-09-05T18:52:22.550Z,24.00
2018-09-05T18:54:51.106Z,23.80
2018-09-05T18:57:19.603Z,23.70
2018-09-05T18:59:50.578Z,23.50
2018-09-05T19:02:21.989Z,23.40
2018-09-05T19:07:21.670Z,23.20
2018-09-05T19:09:50.098Z,23.10
2018-09-05T19:12:18.406Z,23.00
2018-09-05T19:17:15.107Z,22.90
2018-09-05T19:27:07.832Z,22.50
2018-09-05T19:29:36.305Z,22.50
2018-09-05T19:32:04.742Z,22.40
2018-09-05T19:34:33.267Z,22.30
2018-09-05T19:37:01.856Z,22.20
2018-09-05T19:39:31.222Z,22.20
2018-09-05T19:41:59.736Z,22.20
2018-09-05T19:44:28.376Z,22.20
2018-09-05T19:46:57.031Z,22.10
2018-09-05T19:49:25.790Z,22.00
2018-09-05T19:51:54.238Z,21.90
2018-09-05T19:54:22.704Z,21.80
2018-09-05T19:56:51.122Z,21.80
2018-09-05T19:59:19.707Z,21.80
2018-09-05T20:01:48.121Z,21.90
2018-09-05T20:04:16.499Z,21.90
2018-09-05T20:09:13.457Z,21.80
2018-09-05T20:11:43.918Z,21.90
2018-09-05T20:14:12.566Z,21.90
2018-09-05T20:16:41.120Z,21.90
2018-09-05T20:19:09.809Z,22.00
2018-09-05T20:21:38.416Z,24.00
2018-09-05T20:24:06.940Z,21.70
2018-09-05T20:26:35.418Z,21.70
2018-09-05T20:29:03.786Z,21.60
2018-09-05T20:31:32.107Z,21.40
2018-09-05T20:34:00.675Z,21.30
2018-09-05T20:36:29.276Z,21.30
2018-09-05T20:38:57.882Z,21.20
2018-09-05T20:41:26.394Z,21.20
2018-09-05T20:43:56.119Z,21.20
2018-09-05T20:46:24.497Z,21.20
2018-09-05T20:48:53.202Z,21.10
2018-09-05T20:51:21.793Z,21.20
2018-09-05T20:53:50.203Z,21.10
2018-09-05T20:56:18.576Z,21.10
2018-09-05T20:58:47.073Z,21.00
2018-09-05T21:01:15.567Z,20.90
2018-09-05T21:03:44.094Z,20.90
2018-09-05T21:06:12.450Z,20.80
2018-09-05T21:11:09.343Z,20.80
2018-09-05T21:13:37.737Z,20.80
2018-09-05T21:16:06.181Z,20.80
2018-09-05T21:18:34.670Z,20.70
2018-09-05T21:23:32.562Z,20.60
2018-09-05T21:26:01.062Z,20.60
2018-09-05T21:28:29.501Z,20.50
2018-09-05T21:30:57.971Z,20.50
2018-09-05T21:33:26.487Z,20.50
2018-09-05T21:35:55.119Z,20.40
2018-09-05T21:38:23.543Z,20.40
2018-09-05T21:40:51.893Z,20.40
2018-09-05T21:43:20.375Z,20.50
2018-09-05T21:45:48.919Z,20.40
2018-09-05T21:48:17.584Z,20.40
2018-09-05T21:50:46.056Z,20.40
2018-09-05T21:55:43.003Z,20.40
2018-09-05T21:58:11.448Z,20.40
2018-09-05T22:00:39.946Z,20.40
2018-09-05T22:03:08.405Z,20.50
2018-09-05T22:05:36.775Z,20.50
2018-09-05T22:08:05.149Z,20.70
2018-09-05T22:10:33.563Z,20.40
2018-09-05T22:13:01.899Z,20.40
2018-09-05T22:15:48.946Z,20.40
2018-09-05T22:18:18.201Z,20.40
2018-09-05T22:20:46.980Z,20.30
2018-09-05T22:23:15.424Z,20.20
2018-09-05T22:25:43.871Z,20.20
2018-09-05T22:28:12.209Z,20.20
2018-09-05T22:30:40.532Z,20.10
2018-09-05T22:33:09.324Z,20.20
2018-09-05T22:35:37.683Z,20.10
2018-09-05T22:38:06.043Z,20.00
2018-09-05T22:40:39.752Z,20.00
2018-09-05T22:43:19.524Z,20.00
2018-09-05T22:45:59.178Z,19.90
2018-09-05T22:50:57.153Z,20.00
2018-09-05T22:53:45.046Z,20.00
2018-09-05T22:58:32.615Z,19.90
2018-09-05T23:01:13.501Z,20.00
2018-09-05T23:03:53.303Z,20.10
2018-09-05T23:06:50.898Z,20.00
2018-09-05T23:10:30.061Z,19.90
2018-09-05T23:13:09.886Z,19.80
2018-09-05T23:15:49.816Z,19.90
2018-09-05T23:18:29.253Z,19.80
2018-09-05T23:21:30.621Z,19.80
2018-09-05T23:24:03.137Z,19.80
2018-09-05T23:26:31.503Z,19.70
2018-09-05T23:29:00.057Z,19.70
2018-09-05T23:31:28.630Z,19.70
2018-09-05T23:33:56.987Z,19.70
2018-09-05T23:36:25.699Z,19.60
2018-09-05T23:38:54.084Z,19.50
2018-09-05T23:41:22.603Z,19.50
2018-09-05T23:43:51.124Z,19.50
2018-09-05T23:46:19.681Z,19.50
2018-09-05T23:48:48.607Z,19.30
2018-09-05T23:51:17.025Z,19.30
2018-09-05T23:53:45.379Z,19.20
2018-09-05T23:56:13.938Z,19.20
2018-09-05T23:58:42.436Z,19.20
